Time;durP1;ratioP1;P1;durP2;ratioP2;P2;SDS_P1;SDS_P2;PMS_P1;PMS_P2;Temp;Humidity;BMP_temperature;BMP_pressure;BME280_temperature;BME280_humidity;BME280_pressure;Samples;Min_cycle;Max_cycle;Signal;HPM_P1;HPM_P2
2024/02/12 00:00:36;;;;;;;1.48;0.63;;;;;;;5.88;100.00;91456.34;2106651;28;20086;-79
2024/02/12 00:01:40;;;;;;;0.60;0.55;;;;;;;5.99;100.00;91456.81;2106333;28;20214;-79
2024/02/12 00:02:41;;;;;;;0.40;0.40;;;;;;;6.10;100.00;91455.72;2115198;28;20027;-81
2024/02/12 00:03:42;;;;;;;0.60;0.50;;;;;;;6.12;100.00;91458.69;2123234;27;20027;-82
2024/02/12 00:04:43;;;;;;;0.57;0.40;;;;;;;6.11;100.00;91451.91;2114796;28;20169;-80
2024/02/12 00:05:46;;;;;;;1.40;0.40;;;;;;;6.02;100.00;91449.91;2114352;28;20657;-80
2024/02/12 00:06:47;;;;;;;0.47;0.47;;;;;;;5.97;100.00;91453.06;2119169;27;20039;-81
2024/02/12 00:07:49;;;;;;;0.82;0.40;;;;;;;5.92;100.00;91446.41;2123201;27;20023;-79
2024/02/12 00:08:51;;;;;;;0.65;0.43;;;;;;;5.93;100.00;91455.88;2106151;28;20093;-79
2024/02/12 00:09:52;;;;;;;0.65;0.40;;;;;;;5.96;100.00;91452.34;2114731;28;20020;-83
2024/02/12 00:10:54;;;;;;;0.82;0.43;;;;;;;5.79;100.00;91449.06;2105970;28;20040;-81
2024/02/12 00:11:55;;;;;;;0.95;0.47;;;;;;;5.71;100.00;91460.31;2106546;27;20028;-82
2024/02/12 00:12:56;;;;;;;2.33;0.50;;;;;;;5.92;100.00;91445.66;2114496;28;20549;-80
2024/02/12 00:13:58;;;;;;;0.60;0.40;;;;;;;6.02;100.00;91452.56;2114848;28;20495;-80
2024/02/12 00:15:02;;;;;;;0.68;0.50;;;;;;;5.99;100.00;91458.72;2106376;28;20020;-81
2024/02/12 00:16:05;;;;;;;1.35;0.63;;;;;;;6.04;100.00;91450.22;2097982;28;20032;-79
2024/02/12 00:17:09;;;;;;;0.43;0.43;;;;;;;6.04;100.00;91456.25;2115355;27;20026;-81
2024/02/12 00:18:10;;;;;;;1.40;0.60;;;;;;;6.04;100.00;91461.56;2123003;27;20413;-80
2024/02/12 00:19:12;;;;;;;1.00;0.32;;;;;;;5.99;100.00;91451.50;2114162;28;20767;-82
2024/02/12 00:20:13;;;;;;;0.60;0.40;;;;;;;5.86;100.00;91453.41;2114396;28;20027;-81
2024/02/12 00:21:14;;;;;;;0.82;0.30;;;;;;;5.82;100.00;91456.16;2122865;27;20026;-80
2024/02/12 00:22:15;;;;;;;0.85;0.50;;;;;;;5.73;100.00;91453.41;2123686;27;20581;-81
2024/02/12 00:23:16;;;;;;;0.40;0.40;;;;;;;6.09;100.00;91447.00;2123697;27;20027;-82
2024/02/12 00:24:17;;;;;;;1.05;0.47;;;;;;;6.00;100.00;91454.88;2114505;28;20020;-82
2024/02/12 00:25:18;;;;;;;0.40;0.40;;;;;;;5.99;100.00;91456.81;2103822;28;20028;-82
2024/02/12 00:26:25;;;;;;;0.47;0.30;;;;;;;5.96;100.00;91452.34;2114395;28;20046;-81
2024/02/12 00:27:27;;;;;;;0.85;0.40;;;;;;;6.04;100.00;91450.94;2122610;27;20051;-81
2024/02/12 00:28:28;;;;;;;1.13;0.40;;;;;;;5.96;100.00;91457.66;2123576;27;20027;-81
2024/02/12 00:29:32;;;;;;;1.40;0.30;;;;;;;5.87;100.00;91454.88;2122978;27;20089;-80
2024/02/12 00:30:35;;;;;;;0.43;0.30;;;;;;;5.93;100.00;91453.22;2122825;27;20058;-81
2024/02/12 00:31:37;;;;;;;0.30;0.30;;;;;;;6.03;100.00;91457.44;2123058;27;20034;-80
2024/02/12 00:32:38;;;;;;;0.32;0.32;;;;;;;5.80;100.00;91450.53;2122949;27;20058;-81
2024/02/12 00:33:40;;;;;;;0.57;0.40;;;;;;;5.78;100.00;91454.78;2122873;27;20031;-79
2024/02/12 00:34:41;;;;;;;0.30;0.30;;;;;;;5.80;100.00;91455.13;2114453;28;20019;-81
2024/02/12 00:35:42;;;;;;;0.30;0.30;;;;;;;5.85;100.00;91451.19;2123013;27;20434;-82
2024/02/12 00:36:45;;;;;;;0.35;0.32;;;;;;;5.61;100.00;91456.06;2122976;27;20080;-82
2024/02/12 00:37:46;;;;;;;0.38;0.38;;;;;;;5.69;100.00;91455.41;2114886;27;20023;-79
2024/02/12 00:38:47;;;;;;;0.80;0.30;;;;;;;5.84;100.00;91450.44;2105799;28;20031;-82
2024/02/12 00:39:48;;;;;;;0.28;0.20;;;;;;;5.70;100.00;91450.84;2106121;28;20036;-81
2024/02/12 00:40:49;;;;;;;2.08;0.30;;;;;;;5.78;100.00;91452.13;2114380;28;20024;-81
2024/02/12 00:41:52;;;;;;;0.30;0.20;;;;;;;5.76;100.00;91449.19;2123120;27;20444;-78
2024/02/12 00:42:58;;;;;;;0.30;0.30;;;;;;;5.71;100.00;91458.41;2114517;28;20035;-80
2024/02/12 00:43:59;;;;;;;0.65;0.30;;;;;;;5.91;100.00;91466.13;2120598;27;20035;-79
2024/02/12 00:45:00;;;;;;;0.82;0.35;;;;;;;5.84;100.00;91457.63;2114413;28;20032;-83
2024/02/12 00:46:01;;;;;;;0.77;0.40;;;;;;;5.82;100.00;91464.09;2113304;28;20019;-80
2024/02/12 00:47:03;;;;;;;0.28;0.28;;;;;;;5.70;100.00;91464.84;2122452;27;20035;-83
2024/02/12 00:48:05;;;;;;;0.32;0.30;;;;;;;5.62;100.00;91470.78;2114120;28;20035;-83
2024/02/12 00:49:16;;;;;;;0.40;0.40;;;;;;;5.59;100.00;91459.16;2097776;28;20032;-79
2024/02/12 00:50:17;;;;;;;0.68;0.38;;;;;;;5.46;100.00;91464.44;2115633;27;20480;-81
2024/02/12 00:51:18;;;;;;;0.28;0.28;;;;;;;5.43;100.00;91456.59;2113995;28;20647;-82
2024/02/12 00:52:23;;;;;;;0.30;0.30;;;;;;;5.46;100.00;91458.41;2114248;28;20027;-80
2024/02/12 00:53:24;;;;;;;1.10;0.50;;;;;;;5.39;100.00;91461.97;2122831;27;20077;-80
2024/02/12 00:54:27;;;;;;;0.52;0.32;;;;;;;5.43;100.00;91459.25;2122633;27;20027;-80
2024/02/12 00:55:28;;;;;;;0.20;0.20;;;;;;;5.46;100.00;91463.69;2121776;27;20450;-81
2024/02/12 00:56:29;;;;;;;0.60;0.30;;;;;;;5.40;100.00;91462.72;2114387;28;20115;-78
2024/02/12 00:57:30;;;;;;;0.82;0.40;;;;;;;5.27;100.00;91463.47;2114077;28;20019;-81
2024/02/12 00:58:32;;;;;;;0.30;0.30;;;;;;;5.30;100.00;91467.19;2114302;28;20077;-80
2024/02/12 00:59:39;;;;;;;1.20;0.50;;;;;;;5.30;100.00;91467.91;2122704;27;20019;-82
2024/02/12 01:00:40;;;;;;;0.30;0.30;;;;;;;5.18;100.00;91473.97;2123560;27;20083;-85
2024/02/12 01:01:41;;;;;;;0.20;0.20;;;;;;;5.20;100.00;91476.16;2114394;28;20066;-79
2024/02/12 01:02:42;;;;;;;0.80;0.30;;;;;;;5.07;100.00;91480.72;2114210;28;20027;-80
2024/02/12 01:03:44;;;;;;;0.20;0.20;;;;;;;5.13;100.00;91477.09;2114266;28;20076;-80
2024/02/12 01:04:46;;;;;;;0.38;0.38;;;;;;;5.09;100.00;91467.78;2106262;28;20027;-80
2024/02/12 01:05:48;;;;;;;0.30;0.30;;;;;;;4.89;100.00;91481.94;2105656;28;20377;-81
2024/02/12 01:06:49;;;;;;;0.32;0.30;;;;;;;4.90;100.00;91475.47;2105558;28;20038;-79
2024/02/12 01:07:50;;;;;;;1.13;0.30;;;;;;;4.92;100.00;91475.81;2122362;27;20023;-79
2024/02/12 01:08:50;;;;;;;0.20;0.20;;;;;;;4.86;100.00;91472.19;2121490;27;20061;-80
2024/02/12 01:09:51;;;;;;;0.20;0.20;;;;;;;4.87;100.00;91478.94;2105219;28;20028;-81
2024/02/12 01:10:53;;;;;;;0.35;0.30;;;;;;;4.86;100.00;91474.81;2113879;28;20038;-82
2024/02/12 01:11:55;;;;;;;0.52;0.38;;;;;;;4.77;100.00;91464.09;2113610;28;20213;-83
2024/02/12 01:12:57;;;;;;;0.30;0.30;;;;;;;4.65;100.00;91465.53;2109362;28;20036;-80
2024/02/12 01:13:58;;;;;;;0.68;0.40;;;;;;;4.62;100.00;91465.66;2113503;28;20083;-79
2024/02/12 01:15:00;;;;;;;1.08;0.30;;;;;;;4.61;100.00;91464.16;2120376;27;20052;-85
2024/02/12 01:16:00;;;;;;;1.50;0.30;;;;;;;4.50;100.00;91472.38;2122148;27;20027;-80
2024/02/12 01:17:02;;;;;;;0.38;0.38;;;;;;;4.54;100.00;91468.47;2122275;27;20019;-80
2024/02/12 01:18:06;;;;;;;0.52;0.30;;;;;;;4.39;100.00;91458.66;2114052;28;20077;-82
2024/02/12 01:19:07;;;;;;;0.50;0.40;;;;;;;4.34;100.00;91464.47;2114399;27;20032;-79
2024/02/12 01:20:08;;;;;;;0.30;0.30;;;;;;;4.40;100.00;91460.16;2105513;28;20036;-80
2024/02/12 01:21:09;;;;;;;0.30;0.30;;;;;;;4.32;100.00;91459.59;2113044;28;20039;-80
2024/02/12 01:22:10;;;;;;;0.38;0.35;;;;;;;4.21;100.00;91467.03;2113746;28;20063;-83
2024/02/12 01:23:13;;;;;;;2.15;0.30;;;;;;;4.30;100.00;91461.91;2114096;28;20054;-79
2024/02/12 01:24:15;;;;;;;0.45;0.20;;;;;;;4.40;100.00;91462.81;2114427;28;20023;-81
2024/02/12 01:25:18;;;;;;;1.50;0.40;;;;;;;4.39;100.00;91467.38;2114489;28;20080;-79
2024/02/12 01:26:20;;;;;;;0.22;0.20;;;;;;;4.42;100.00;91461.22;2119125;27;20130;-82
2024/02/12 01:27:23;;;;;;;0.30;0.30;;;;;;;4.45;100.00;91462.31;2114248;28;20027;-81
2024/02/12 01:28:25;;;;;;;0.40;0.30;;;;;;;4.38;100.00;91454.53;2098420;28;20028;-80
2024/02/12 01:29:27;;;;;;;0.77;0.40;;;;;;;4.29;100.00;91461.16;2106485;28;20469;-82
2024/02/12 01:30:28;;;;;;;0.57;0.32;;;;;;;4.40;100.00;91452.25;2106188;28;20034;-82
2024/02/12 01:31:30;;;;;;;0.70;0.50;;;;;;;4.52;100.00;91457.56;2106152;28;20032;-81
2024/02/12 01:32:31;;;;;;;0.30;0.30;;;;;;;4.62;100.00;91452.41;2122961;27;20015;-80
2024/02/12 01:33:33;;;;;;;1.20;0.40;;;;;;;4.44;100.00;91456.28;2122899;27;20057;-83
2024/02/12 01:34:34;;;;;;;0.40;0.40;;;;;;;4.34;100.00;91454.63;2114727;28;20640;-83
2024/02/12 01:35:38;;;;;;;0.77;0.40;;;;;;;4.39;100.00;91458.66;2114490;28;20039;-82
2024/02/12 01:36:39;;;;;;;0.85;0.32;;;;;;;4.32;100.00;91458.84;2122922;27;20023;-83
2024/02/12 01:37:41;;;;;;;0.73;0.30;;;;;;;4.35;100.00;91460.69;2114486;28;20024;-80
2024/02/12 01:38:42;;;;;;;0.40;0.40;;;;;;;4.33;100.00;91461.06;2106314;28;20020;-79
2024/02/12 01:39:43;;;;;;;0.57;0.40;;;;;;;4.50;100.00;91457.25;2122894;27;20068;-80
2024/02/12 01:40:44;;;;;;;2.10;0.40;;;;;;;4.47;100.00;91462.63;2114454;28;20050;-79
2024/02/12 01:41:46;;;;;;;0.63;0.40;;;;;;;4.47;100.00;91454.69;2097814;28;20116;-80
2024/02/12 01:42:50;;;;;;;0.43;0.30;;;;;;;4.82;100.00;91453.00;2114481;28;20027;-80
2024/02/12 01:43:51;;;;;;;0.45;0.40;;;;;;;4.73;100.00;91458.16;2114364;28;20032;-81
2024/02/12 01:45:11;;;;;;;1.48;0.40;;;;;;;4.69;100.00;91470.75;2097849;28;20472;-81
2024/02/12 01:46:13;;;;;;;0.40;0.40;;;;;;;4.81;100.00;91459.47;2102906;28;20111;-81
2024/02/12 01:47:15;;;;;;;1.77;0.32;;;;;;;4.78;100.00;91470.88;2111175;28;20031;-81
2024/02/12 01:48:18;;;;;;;0.60;0.40;;;;;;;4.91;100.00;91463.72;2123000;27;20042;-83
2024/02/12 01:49:19;;;;;;;0.30;0.30;;;;;;;4.88;100.00;91471.78;2114463;28;20035;-81
2024/02/12 01:50:20;;;;;;;0.50;0.38;;;;;;;4.71;100.00;91465.78;2114478;28;20019;-82
2024/02/12 01:51:22;;;;;;;0.50;0.40;;;;;;;4.69;100.00;91462.81;2115100;28;20030;-81
2024/02/12 01:52:23;;;;;;;0.75;0.32;;;;;;;4.79;100.00;91469.72;2122910;27;20105;-83
2024/02/12 01:53:24;;;;;;;0.38;0.35;;;;;;;4.68;100.00;91463.97;2122792;27;20030;-84
2024/02/12 01:54:25;;;;;;;0.45;0.40;;;;;;;4.83;100.00;91470.38;2122674;27;20023;-82
2024/02/12 01:55:29;;;;;;;0.30;0.30;;;;;;;4.84;100.00;91465.81;2114285;28;20078;-80
2024/02/12 01:56:31;;;;;;;0.50;0.40;;;;;;;4.79;100.00;91472.38;2114691;28;20110;-81
2024/02/12 01:57:33;;;;;;;0.70;0.70;;;;;;;4.75;100.00;91463.78;2118111;27;20927;-79
2024/02/12 01:58:40;;;;;;;1.35;0.40;;;;;;;5.01;100.00;91475.94;2122630;27;20072;-82
2024/02/12 01:59:42;;;;;;;1.38;0.40;;;;;;;5.08;100.00;91469.69;2123486;27;20417;-81
2024/02/12 02:00:48;;;;;;;0.30;0.30;;;;;;;5.15;100.00;91468.75;2123447;27;20057;-82
2024/02/12 02:01:52;;;;;;;1.58;0.68;;;;;;;5.01;100.00;91472.53;2114322;28;20034;-80
2024/02/12 02:02:53;;;;;;;0.38;0.30;;;;;;;4.96;100.00;91471.16;2098609;28;20114;-81
2024/02/12 02:03:55;;;;;;;1.05;0.40;;;;;;;5.02;100.00;91477.41;2097575;28;20412;-81
2024/02/12 02:04:57;;;;;;;0.52;0.30;;;;;;;4.99;100.00;91478.25;2106089;28;20028;-83
2024/02/12 02:06:00;;;;;;;0.60;0.40;;;;;;;5.03;100.00;91481.53;2114483;28;20019;-80
2024/02/12 02:07:02;;;;;;;0.88;0.35;;;;;;;5.13;100.00;91473.72;2106574;28;20054;-82
2024/02/12 02:08:03;;;;;;;2.70;0.40;;;;;;;5.02;100.00;91482.72;2114325;28;20408;-80
2024/02/12 02:09:07;;;;;;;0.73;0.45;;;;;;;5.18;100.00;91476.59;2114067;28;20035;-81
2024/02/12 02:10:09;;;;;;;1.27;0.40;;;;;;;5.00;100.00;91487.69;2122682;27;20022;-83
2024/02/12 02:11:10;;;;;;;2.33;0.40;;;;;;;4.95;100.00;91485.53;2122788;27;20023;-83
2024/02/12 02:12:13;;;;;;;0.40;0.40;;;;;;;5.06;100.00;91479.97;2122775;27;20015;-82
2024/02/12 02:13:17;;;;;;;1.75;0.40;;;;;;;5.14;100.00;91481.25;2122655;27;20023;-83
2024/02/12 02:14:17;;;;;;;1.40;0.40;;;;;;;5.14;100.00;91481.25;2114616;28;20027;-83
2024/02/12 02:15:19;;;;;;;0.95;0.40;;;;;;;5.21;100.00;91490.91;2113526;28;20043;-82
2024/02/12 02:16:20;;;;;;;1.00;0.47;;;;;;;5.33;100.00;91487.53;2114101;28;20030;-82
2024/02/12 02:17:21;;;;;;;0.73;0.57;;;;;;;5.39;100.00;91493.03;2105558;28;20377;-84
2024/02/12 02:18:23;;;;;;;0.43;0.30;;;;;;;5.53;100.00;91485.44;2114200;28;20023;-81
2024/02/12 02:19:26;;;;;;;0.70;0.38;;;;;;;5.43;100.00;91491.78;2114230;28;20053;-81
2024/02/12 02:20:28;;;;;;;0.40;0.40;;;;;;;5.42;100.00;91487.66;2114484;28;20023;-80
2024/02/12 02:21:29;;;;;;;0.70;0.40;;;;;;;5.33;100.00;91482.22;2113963;28;20098;-82
2024/02/12 02:22:30;;;;;;;0.40;0.40;;;;;;;5.23;100.00;91478.72;2106645;28;20412;-83
2024/02/12 02:23:31;;;;;;;0.75;0.40;;;;;;;5.25;100.00;91478.28;2105879;28;20032;-80
2024/02/12 02:26:30;;;;;;;0.82;0.50;;;;;;;4.24;100.00;91479.44;2140844;27;20130;-81
2024/02/12 02:27:31;;;;;;;1.58;0.50;;;;;;;4.32;100.00;91475.47;2121386;28;20094;-82
2024/02/12 02:28:32;;;;;;;0.80;0.40;;;;;;;4.34;100.00;91477.69;2104450;28;20418;-82
2024/02/12 02:29:33;;;;;;;0.45;0.45;;;;;;;4.38;100.00;91487.03;2104602;28;20027;-81
2024/02/12 02:30:34;;;;;;;0.40;0.40;;;;;;;4.35;100.00;91476.56;2113065;27;20066;-80
2024/02/12 02:31:35;;;;;;;0.40;0.40;;;;;;;4.26;100.00;91477.16;2113133;28;20024;-84
2024/02/12 02:32:40;;;;;;;0.57;0.57;;;;;;;4.23;100.00;91472.69;2104714;28;20035;-83
2024/02/12 02:33:41;;;;;;;1.40;0.50;;;;;;;4.26;100.00;91475.25;2100928;28;20051;-83
2024/02/12 02:34:55;;;;;;;1.25;0.47;;;;;;;4.34;100.00;91480.34;2096185;28;20484;-84
2024/02/12 02:35:56;;;;;;;0.80;0.40;;;;;;;4.22;100.00;91471.19;2099576;28;20381;-82
2024/02/12 02:36:57;;;;;;;0.40;0.40;;;;;;;4.17;100.00;91476.97;2096277;28;20033;-83
2024/02/12 02:38:01;;;;;;;0.50;0.47;;;;;;;4.09;100.00;91470.38;2097975;28;20029;-84
2024/02/12 02:39:03;;;;;;;0.57;0.57;;;;;;;4.17;100.00;91477.72;2104314;28;20389;-84
2024/02/12 02:40:06;;;;;;;0.60;0.50;;;;;;;4.24;100.00;91474.16;2088241;28;20413;-83
2024/02/12 02:41:07;;;;;;;0.40;0.40;;;;;;;4.17;100.00;91469.81;2088358;28;20535;-84
2024/02/12 02:42:08;;;;;;;0.85;0.60;;;;;;;4.17;100.00;91476.97;2104541;28;20032;-84
2024/02/12 02:43:10;;;;;;;1.33;0.60;;;;;;;4.41;100.00;91474.88;2112802;28;20106;-83
2024/02/12 02:44:13;;;;;;;0.82;0.60;;;;;;;4.04;100.00;91466.34;2120724;28;20538;-83
2024/02/12 02:45:14;;;;;;;1.95;0.80;;;;;;;3.99;100.00;91472.84;2112002;28;20040;-84
2024/02/12 02:46:26;;;;;;;0.60;0.60;;;;;;;4.08;100.00;91466.22;2103084;28;20853;-84
2024/02/12 02:47:27;;;;;;;0.70;0.47;;;;;;;4.03;100.00;91467.47;2101927;28;20380;-84
2024/02/12 02:48:28;;;;;;;1.10;0.63;;;;;;;4.07;100.00;91468.13;2095957;28;20032;-81
2024/02/12 02:49:29;;;;;;;2.03;0.65;;;;;;;4.04;100.00;91472.38;2102611;27;20052;-83
2024/02/12 02:50:34;;;;;;;1.77;0.50;;;;;;;3.94;100.00;91480.53;2115179;27;20027;-85
2024/02/12 02:51:36;;;;;;;3.42;0.73;;;;;;;3.96;100.00;91475.59;2108549;28;20028;-83
2024/02/12 02:52:39;;;;;;;0.50;0.50;;;;;;;3.95;100.00;91479.38;2033722;28;20070;-84
2024/02/12 02:53:40;;;;;;;0.73;0.52;;;;;;;3.96;100.00;91478.25;2001536;28;20033;-87
2024/02/12 02:54:43;;;;;;;0.70;0.70;;;;;;;3.93;100.00;91484.34;2006851;28;20189;-85
2024/02/12 02:55:44;;;;;;;0.60;0.60;;;;;;;3.93;100.00;91481.69;2016427;28;20120;-83
2024/02/12 02:56:45;;;;;;;1.30;0.70;;;;;;;3.99;100.00;91490.63;2038039;28;20039;-82
2024/02/12 02:57:46;;;;;;;1.50;0.70;;;;;;;4.08;100.00;91490.78;2043239;28;20035;-83
2024/02/12 02:58:47;;;;;;;0.52;0.52;;;;;;;4.32;100.00;91490.59;2048731;28;20084;-84
2024/02/12 02:59:48;;;;;;;1.40;0.63;;;;;;;4.22;100.00;91484.41;2045641;28;20177;-84
2024/02/12 03:00:49;;;;;;;0.63;0.63;;;;;;;4.28;100.00;91488.03;2043461;28;20432;-85
2024/02/12 03:01:50;;;;;;;2.28;0.60;;;;;;;4.23;100.00;91493.84;2058260;28;20032;-84
2024/02/12 03:02:52;;;;;;;2.63;0.75;;;;;;;4.33;100.00;91495.47;2073505;27;20020;-86
2024/02/12 03:03:55;;;;;;;1.35;0.68;;;;;;;4.36;100.00;91494.63;2076630;28;20032;-84
2024/02/12 03:04:56;;;;;;;0.85;0.68;;;;;;;4.29;100.00;91500.84;2085126;27;20032;-84
2024/02/12 03:05:57;;;;;;;0.60;0.50;;;;;;;4.43;100.00;91506.94;2088534;28;20044;-84
2024/02/12 03:06:58;;;;;;;1.10;0.60;;;;;;;4.47;100.00;91499.66;2083563;28;20039;-83
2024/02/12 03:08:02;;;;;;;0.70;0.50;;;;;;;4.32;100.00;91503.81;2098185;28;20055;-85
2024/02/12 03:09:03;;;;;;;1.08;0.70;;;;;;;4.30;100.00;91488.34;2104526;28;20059;-85
2024/02/12 03:10:05;;;;;;;1.08;0.63;;;;;;;4.51;100.00;91506.34;2104238;28;20029;-85
2024/02/12 03:11:06;;;;;;;1.27;0.80;;;;;;;4.53;100.00;91501.38;2114975;27;20105;-84
2024/02/12 03:12:07;;;;;;;1.05;0.80;;;;;;;4.52;100.00;91502.56;2114874;28;20463;-83
2024/02/12 03:13:09;;;;;;;1.67;0.80;;;;;;;4.42;100.00;91506.19;2063415;28;20093;-83
2024/02/12 03:14:10;;;;;;;2.45;0.68;;;;;;;4.24;100.00;91508.53;2005783;28;20028;-83
2024/02/12 03:15:13;;;;;;;0.88;0.73;;;;;;;4.17;100.00;91503.41;2010734;28;20060;-84
2024/02/12 03:16:15;;;;;;;0.60;0.60;;;;;;;4.26;100.00;91504.31;2007677;28;20050;-83
2024/02/12 03:17:16;;;;;;;1.40;0.82;;;;;;;4.27;100.00;91507.72;2019029;28;23872;-85
2024/02/12 03:18:20;;;;;;;2.25;0.80;;;;;;;4.18;100.00;91504.91;2027508;28;20665;-84
2024/02/12 03:19:21;;;;;;;1.40;0.60;;;;;;;4.12;100.00;91511.84;2049614;28;20057;-85
2024/02/12 03:20:24;;;;;;;0.75;0.70;;;;;;;3.93;100.00;91508.88;2048939;28;20504;-84
2024/02/12 03:21:26;;;;;;;1.27;0.77;;;;;;;4.02;100.00;91514.31;2035716;28;21835;-85
2024/02/12 03:22:27;;;;;;;2.05;0.80;;;;;;;4.16;100.00;91512.50;2058966;28;20488;-85
2024/02/12 03:23:30;;;;;;;2.17;0.80;;;;;;;4.28;100.00;91515.22;2057412;28;20091;-84
2024/02/12 03:24:31;;;;;;;1.58;0.60;;;;;;;4.31;100.00;91515.56;2059300;28;20401;-84
2024/02/12 03:25:31;;;;;;;0.88;0.60;;;;;;;4.38;100.00;91513.47;2071638;28;20102;-84
2024/02/12 03:26:35;;;;;;;1.67;0.70;;;;;;;4.31;100.00;91511.00;2072287;28;20049;-83
2024/02/12 03:27:38;;;;;;;3.72;1.08;;;;;;;4.43;100.00;91514.88;2100706;28;20139;-83
2024/02/12 03:28:39;;;;;;;1.92;0.90;;;;;;;4.54;100.00;91510.81;2095987;28;20173;-82
2024/02/12 03:29:42;;;;;;;1.30;0.73;;;;;;;4.48;100.00;91517.03;2095772;28;20098;-85
2024/02/12 03:30:43;;;;;;;1.48;0.80;;;;;;;4.52;100.00;91517.66;2096165;28;20028;-84
2024/02/12 03:31:44;;;;;;;0.77;0.70;;;;;;;4.43;100.00;91515.59;2104118;28;20487;-86
2024/02/12 03:32:45;;;;;;;1.15;0.90;;;;;;;4.33;100.00;91519.25;2095762;28;20043;-84
2024/02/12 03:33:49;;;;;;;1.42;0.90;;;;;;;4.46;100.00;91516.69;2102942;28;20118;-85
2024/02/12 03:34:53;;;;;;;0.70;0.70;;;;;;;4.58;100.00;91515.28;2098862;28;20476;-83
2024/02/12 03:35:55;;;;;;;1.67;0.82;;;;;;;4.67;100.00;91521.44;2034723;28;20116;-84
2024/02/12 03:36:56;;;;;;;2.25;0.88;;;;;;;4.74;100.00;91515.97;2009392;28;20036;-84
2024/02/12 03:37:57;;;;;;;3.33;0.77;;;;;;;4.60;100.00;91518.22;2016559;28;20104;-85
2024/02/12 03:38:58;;;;;;;1.38;0.80;;;;;;;4.58;100.00;91516.00;2031609;28;20401;-83
2024/02/12 03:39:59;;;;;;;1.42;0.73;;;;;;;4.68;100.00;91511.59;2030228;28;20488;-84
2024/02/12 03:41:00;;;;;;;1.52;0.60;;;;;;;4.64;100.00;91516.97;2040509;28;20104;-84
2024/02/12 03:42:02;;;;;;;2.15;0.80;;;;;;;4.62;100.00;91524.59;2027173;28;20028;-83
2024/02/12 03:43:04;;;;;;;1.55;0.90;;;;;;;4.74;100.00;91523.94;2038095;28;20036;-83
2024/02/12 03:44:05;;;;;;;0.77;0.77;;;;;;;4.69;100.00;91526.31;2045501;28;20091;-83
2024/02/12 03:45:06;;;;;;;0.70;0.70;;;;;;;4.62;100.00;91521.22;2046459;28;20513;-84
2024/02/12 03:46:07;;;;;;;2.40;0.88;;;;;;;4.65;100.00;91529.03;2043452;28;20044;-84
2024/02/12 03:47:08;;;;;;;1.88;0.88;;;;;;;4.64;100.00;91526.81;2060915;28;20103;-84
2024/02/12 03:59:50;;;;;;;1.02;0.80;;;;;;;4.64;100.00;91529.47;2073791;28;20461;-84
2024/02/12 04:00:22;;;;;;;1.27;0.70;;;;;;;4.72;100.00;91546.66;2115197;28;20192;-83
2024/02/12 04:01:28;;;;;;;2.90;0.90;;;;;;;4.65;100.00;91542.28;2112266;28;20020;-84
2024/02/12 04:02:29;;;;;;;3.28;0.80;;;;;;;4.55;100.00;91551.22;2098365;28;20146;-85
2024/02/12 04:03:30;;;;;;;1.40;1.00;;;;;;;4.49;100.00;91544.97;2081737;28;20079;-84
2024/02/12 04:04:31;;;;;;;1.95;0.93;;;;;;;4.54;100.00;91545.19;2098191;28;20026;-83
2024/02/12 04:05:32;;;;;;;1.45;0.90;;;;;;;4.54;100.00;91547.09;2098851;28;20063;-83
2024/02/12 04:06:38;;;;;;;1.30;0.90;;;;;;;4.37;100.00;91549.03;2106574;28;20046;-84
2024/02/12 04:07:39;;;;;;;2.05;0.93;;;;;;;4.32;100.00;91548.78;2107085;28;20031;-84
2024/02/12 04:08:42;;;;;;;1.80;1.00;;;;;;;4.46;100.00;91551.81;2106211;28;20020;-84
2024/02/12 04:09:43;;;;;;;1.00;0.88;;;;;;;4.42;100.00;91553.81;2098564;28;20024;-82
2024/02/12 04:10:44;;;;;;;1.55;1.05;;;;;;;4.53;100.00;91553.56;2098468;28;20323;-83
2024/02/12 04:11:45;;;;;;;0.70;0.70;;;;;;;4.49;100.00;91561.59;2105555;28;20039;-83
2024/02/12 04:12:47;;;;;;;1.55;1.00;;;;;;;4.42;100.00;91559.09;2098108;28;20052;-83
2024/02/12 04:13:49;;;;;;;1.52;0.90;;;;;;;4.32;100.00;91567.31;2094329;28;20043;-84
2024/02/12 04:14:51;;;;;;;3.30;1.05;;;;;;;4.19;100.00;91569.84;2098567;28;20111;-84
2024/02/12 04:15:54;;;;;;;1.52;0.80;;;;;;;4.21;100.00;91562.25;2098165;28;20581;-84
2024/02/12 04:16:55;;;;;;;0.95;0.80;;;;;;;4.09;100.00;91565.56;2090844;28;20020;-84
2024/02/12 04:17:56;;;;;;;1.38;1.08;;;;;;;4.08;100.00;91567.44;2098192;28;20027;-84
2024/02/12 04:18:58;;;;;;;1.30;1.20;;;;;;;4.29;100.00;91569.59;2106413;28;20032;-83
2024/02/12 04:19:59;;;;;;;1.15;1.00;;;;;;;4.19;100.00;91569.84;2090670;28;20028;-83
2024/02/12 04:21:08;;;;;;;1.27;0.90;;;;;;;4.48;100.00;91562.75;2089949;28;20036;-84
2024/02/12 04:22:09;;;;;;;2.38;1.00;;;;;;;4.29;100.00;91569.59;2099358;28;20119;-84
2024/02/12 04:23:14;;;;;;;1.02;0.77;;;;;;;4.12;100.00;91565.47;2098246;28;20029;-87
2024/02/12 04:24:15;;;;;;;1.02;0.90;;;;;;;4.23;100.00;91568.63;2098676;28;20028;-84
2024/02/12 04:25:19;;;;;;;2.15;1.33;;;;;;;4.20;100.00;91569.44;2089767;28;20028;-83
2024/02/12 04:26:21;;;;;;;1.52;1.00;;;;;;;4.23;100.00;91565.22;2090367;28;20049;-83
2024/02/12 04:27:22;;;;;;;1.02;0.82;;;;;;;4.11;100.00;91571.91;2090326;28;20439;-84
2024/02/12 04:28:23;;;;;;;2.40;0.85;;;;;;;4.05;100.00;91576.22;2089961;28;20036;-84
2024/02/12 04:29:26;;;;;;;2.15;1.02;;;;;;;4.02;100.00;91569.09;2098202;28;20029;-84
2024/02/12 04:30:29;;;;;;;1.08;0.98;;;;;;;4.09;100.00;91574.25;2098325;28;20129;-82
2024/02/12 04:31:32;;;;;;;1.35;1.00;;;;;;;4.38;100.00;91576.94;2090192;28;20049;-84
2024/02/12 04:32:33;;;;;;;0.88;0.88;;;;;;;4.29;100.00;91579.44;2098609;28;20027;-84
2024/02/12 04:33:34;;;;;;;1.60;1.10;;;;;;;4.29;100.00;91568.84;2106322;28;20039;-84
2024/02/12 04:34:35;;;;;;;1.20;0.90;;;;;;;4.29;100.00;91574.16;2106258;28;20789;-83
2024/02/12 04:35:36;;;;;;;1.42;0.90;;;;;;;4.27;100.00;91569.28;2095147;28;20090;-84
2024/02/12 04:36:41;;;;;;;2.22;1.13;;;;;;;4.20;100.00;91577.38;2098280;28;20509;-85
2024/02/12 04:37:45;;;;;;;2.50;1.05;;;;;;;4.28;100.00;91576.06;2098219;28;20430;-84
2024/02/12 04:38:46;;;;;;;2.90;1.17;;;;;;;4.27;100.00;91574.56;2106471;28;20500;-84
2024/02/12 04:39:48;;;;;;;2.85;1.05;;;;;;;4.15;100.00;91587.69;2106325;28;20016;-83
2024/02/12 04:40:49;;;;;;;1.92;1.10;;;;;;;4.16;100.00;91574.06;2090006;28;20032;-84
2024/02/12 04:41:51;;;;;;;1.80;1.15;;;;;;;4.29;100.00;91580.19;2089777;28;20033;-84
2024/02/12 04:42:57;;;;;;;1.58;0.90;;;;;;;4.29;100.00;91584.72;2097981;28;20021;-84
2024/02/12 04:43:58;;;;;;;2.00;1.00;;;;;;;4.21;100.00;91581.50;2089546;28;20029;-84
2024/02/12 04:44:59;;;;;;;2.40;1.10;;;;;;;4.38;100.00;91584.88;2097925;28;20028;-85
2024/02/12 04:46:00;;;;;;;1.20;1.10;;;;;;;4.44;100.00;91588.53;2097756;28;20028;-83
2024/02/12 04:47:03;;;;;;;2.35;0.93;;;;;;;4.48;100.00;91591.84;2105413;28;20036;-85
2024/02/12 04:48:10;;;;;;;1.15;1.02;;;;;;;4.53;100.00;91585.31;2097646;28;20029;-84
2024/02/12 04:49:11;;;;;;;3.95;1.60;;;;;;;4.71;100.00;91596.22;2097302;28;20069;-83
2024/02/12 04:50:13;;;;;;;2.88;0.80;;;;;;;4.60;100.00;91594.97;2097734;28;20021;-84
2024/02/12 04:51:14;;;;;;;2.88;1.08;;;;;;;4.47;100.00;91598.28;2089579;28;20032;-83
2024/02/12 04:52:16;;;;;;;2.50;1.00;;;;;;;4.40;100.00;91598.47;2089587;28;20017;-84
2024/02/12 04:53:18;;;;;;;2.63;1.00;;;;;;;4.22;100.00;91595.47;2098445;28;20048;-84
2024/02/12 04:54:19;;;;;;;2.00;1.33;;;;;;;4.22;100.00;91592.84;2106374;28;20209;-84
2024/02/12 04:55:20;;;;;;;1.17;1.08;;;;;;;4.36;100.00;91602.34;2106201;28;20027;-83
2024/02/12 04:56:22;;;;;;;1.65;1.10;;;;;;;4.46;100.00;91604.00;2097896;28;20462;-85
2024/02/12 04:57:23;;;;;;;1.60;0.90;;;;;;;4.21;100.00;91604.56;2097759;28;20028;-83
2024/02/12 04:58:24;;;;;;;1.95;0.95;;;;;;;4.17;100.00;91603.88;2106254;28;20514;-85
2024/02/12 04:59:26;;;;;;;1.10;0.90;;;;;;;4.37;100.00;91601.19;2105834;28;20633;-85
2024/02/12 05:00:27;;;;;;;2.15;0.95;;;;;;;4.41;100.00;91599.94;2097612;28;20032;-86
2024/02/12 05:01:28;;;;;;;2.13;1.00;;;;;;;4.50;100.00;91607.31;2089302;28;20020;-84
2024/02/12 05:02:31;;;;;;;1.42;1.00;;;;;;;4.42;100.00;91606.72;2081214;28;20029;-83
2024/02/12 05:03:33;;;;;;;2.75;1.10;;;;;;;4.54;100.00;91603.41;2103317;28;20058;-85
2024/02/12 05:04:35;;;;;;;2.72;0.93;;;;;;;4.54;100.00;91608.69;2086074;28;20470;-83
2024/02/12 05:05:36;;;;;;;1.42;1.00;;;;;;;4.55;100.00;91604.91;2093904;28;21584;-83